createdAt,value
2019-05-26T02:00:43.907Z,99.90
2019-05-26T02:03:15.143Z,99.90
2019-05-26T02:05:46.742Z,99.90
2019-05-26T07:09:30.527Z,99.90
2019-05-26T07:12:02.084Z,99.90
2019-05-26T07:14:32.714Z,99.90
2019-05-26T07:17:04.227Z,99.90
2019-05-26T07:19:35.362Z,99.90
2019-05-26T07:52:13.380Z,99.90
2019-05-26T07:54:44.659Z,99.90
2019-05-26T07:57:16.791Z,99.90
2019-05-26T07:59:47.919Z,99.90
2019-05-26T08:02:19.323Z,99.90
2019-05-26T08:04:51.277Z,99.90
2019-05-26T08:07:23.269Z,99.90
2019-05-26T08:09:54.296Z,99.90
2019-05-26T08:12:30.233Z,99.90
2019-05-26T08:14:58.923Z,99.90
2019-05-26T08:17:30.880Z,99.90
2019-05-26T08:20:02.402Z,99.90
2019-05-26T08:22:35.415Z,99.90
2019-05-26T08:25:06.695Z,99.90
2019-05-26T08:27:37.747Z,99.90
2019-05-26T08:30:09.700Z,99.90
2019-05-26T08:32:40.897Z,99.90
2019-05-26T08:35:11.774Z,99.90
2019-05-26T08:37:42.606Z,99.90
2019-05-26T08:40:19.717Z,99.90
2019-05-26T08:42:52.042Z,99.90
2019-05-26T08:45:24.682Z,99.90
2019-05-26T08:47:55.558Z,99.90
2019-05-26T08:50:26.719Z,99.90
2019-05-26T08:52:57.863Z,99.90
2019-05-26T08:55:29.426Z,99.90
2019-05-26T08:58:00.511Z,99.90
2019-05-26T09:00:31.380Z,99.90
2019-05-26T09:03:02.866Z,99.90
2019-05-26T09:05:33.787Z,99.90
2019-05-26T09:08:07.976Z,99.90
2019-05-26T09:10:38.780Z,99.90
2019-05-26T09:13:10.249Z,99.90
2019-05-26T09:15:42.106Z,99.90
2019-05-26T09:18:12.860Z,99.90
2019-05-26T09:20:47.508Z,99.90
2019-05-26T09:23:18.900Z,99.90
2019-05-26T09:25:50.387Z,99.90
2019-05-26T09:28:22.301Z,99.90
2019-05-26T09:30:53.431Z,99.90
2019-05-26T09:33:28.851Z,99.90
2019-05-26T09:36:01.532Z,99.90
2019-05-26T09:38:33.194Z,99.90
2019-05-26T09:41:05.930Z,99.90
2019-05-26T09:43:37.058Z,99.90
2019-05-26T09:46:09.171Z,99.90
2019-05-26T09:48:40.746Z,99.90
2019-05-26T09:51:12.586Z,99.90
2019-05-26T09:53:43.690Z,99.90
2019-05-26T09:56:15.200Z,99.90
2019-05-26T09:58:46.748Z,99.90
2019-05-26T10:01:17.935Z,99.90
2019-05-26T10:03:54.456Z,99.90
2019-05-26T10:06:26.216Z,99.90
2019-05-26T10:08:57.725Z,99.90
2019-05-26T10:11:30.047Z,99.90
2019-05-26T10:14:02.141Z,99.90
2019-05-26T10:16:37.626Z,99.90
2019-05-26T10:19:13.615Z,99.90
2019-05-26T10:21:45.464Z,99.90
2019-05-26T10:24:16.712Z,99.90
2019-05-26T10:26:47.902Z,99.90
2019-05-26T10:29:19.332Z,99.90
2019-05-26T10:31:50.868Z,99.90
2019-05-26T10:34:22.401Z,99.90
2019-05-26T10:36:53.750Z,99.90
2019-05-26T10:39:26.079Z,99.90
2019-05-26T10:41:57.584Z,99.90
2019-05-26T10:44:28.931Z,99.10
2019-05-26T10:47:00.102Z,99.90
2019-05-26T10:49:31.212Z,99.90
2019-05-26T10:52:02.275Z,99.80
2019-05-26T10:54:33.555Z,99.90
2019-05-26T10:57:04.403Z,99.90
2019-05-26T10:59:35.540Z,99.60
2019-05-26T11:02:07.132Z,99.30
2019-05-26T11:04:38.235Z,97.90
2019-05-26T11:07:09.202Z,98.20
2019-05-26T11:09:42.785Z,99.40
2019-05-26T11:12:14.255Z,97.80
2019-05-26T11:14:45.425Z,98.50
2019-05-26T11:17:16.931Z,98.30
2019-05-26T11:19:48.234Z,97.60
2019-05-26T11:22:19.823Z,97.30
2019-05-26T11:24:51.085Z,96.50
2019-05-26T11:27:22.319Z,95.60
2019-05-26T11:29:53.535Z,95.90
2019-05-26T11:32:24.879Z,96.40
2019-05-26T11:35:01.566Z,96.10
2019-05-26T11:37:30.418Z,96.70
2019-05-26T11:40:01.722Z,95.30
2019-05-26T11:42:32.586Z,95.50
2019-05-26T11:45:03.549Z,95.10
2019-05-26T11:47:34.430Z,93.50
2019-05-26T11:50:05.876Z,93.80
2019-05-26T11:52:37.451Z,93.40
2019-05-26T11:55:09.424Z,93.70
2019-05-26T11:57:40.557Z,93.40
2019-05-26T12:00:12.899Z,92.30
2019-05-26T12:02:44.811Z,93.40
2019-05-26T12:05:17.709Z,95.10
2019-05-26T12:07:48.453Z,93.20
2019-05-26T12:10:19.763Z,92.20
2019-05-26T12:12:50.995Z,91.70
2019-05-26T12:15:22.075Z,93.20
2019-05-26T12:17:53.350Z,91.60
2019-05-26T12:20:24.585Z,92.20
2019-05-26T12:22:56.135Z,91.80
2019-05-26T12:25:27.671Z,91.60
2019-05-26T12:27:59.449Z,91.40
2019-05-26T12:30:30.688Z,93.50
2019-05-26T12:33:02.094Z,91.10
2019-05-26T12:35:46.489Z,90.90
2019-05-26T12:38:17.670Z,92.10
2019-05-26T12:40:49.496Z,92.60
2019-05-26T12:43:21.472Z,89.10
2019-05-26T12:45:53.006Z,89.00
2019-05-26T12:48:24.334Z,88.80
2019-05-26T12:50:55.602Z,88.40
2019-05-26T12:53:26.443Z,88.30
2019-05-26T12:55:57.887Z,89.10
2019-05-26T12:58:28.739Z,88.90
2019-05-26T13:01:00.180Z,85.70
2019-05-26T13:03:34.724Z,85.70
2019-05-26T13:06:06.720Z,84.20
2019-05-26T13:08:38.405Z,84.40
2019-05-26T13:11:09.972Z,83.80
2019-05-26T13:13:41.013Z,83.60
2019-05-26T13:16:12.879Z,82.90
2019-05-26T13:18:44.746Z,82.50
2019-05-26T13:21:17.008Z,82.70
2019-05-26T13:23:48.243Z,82.70
2019-05-26T13:26:19.655Z,82.30
2019-05-26T13:28:51.360Z,81.70
2019-05-26T13:31:22.847Z,82.30
2019-05-26T13:33:53.947Z,82.60
2019-05-26T13:36:25.234Z,80.50
2019-05-26T13:38:56.821Z,80.20
2019-05-26T13:41:29.417Z,81.00
2019-05-26T13:44:00.619Z,79.30
2019-05-26T13:46:31.888Z,81.80
2019-05-26T13:49:02.410Z,78.40
2019-05-26T13:51:33.615Z,77.40
2019-05-26T13:54:04.207Z,76.00
2019-05-26T13:56:35.912Z,75.10
2019-05-26T13:59:06.539Z,74.60
2019-05-26T14:01:37.736Z,76.10
2019-05-26T14:04:08.914Z,73.60
2019-05-26T14:06:40.146Z,76.10
2019-05-26T14:09:12.060Z,77.40
2019-05-26T14:11:42.979Z,75.60
2019-05-26T14:14:14.122Z,76.80
2019-05-26T14:16:47.102Z,78.10
2019-05-26T14:19:21.551Z,76.30
2019-05-26T14:21:53.396Z,76.70
2019-05-26T14:24:24.803Z,78.00
2019-05-26T14:26:56.491Z,77.50
2019-05-26T14:29:27.978Z,77.10
2019-05-26T14:31:59.234Z,77.50
2019-05-26T14:34:30.059Z,77.00
2019-05-26T14:37:01.539Z,76.70
2019-05-26T14:39:32.955Z,75.80
2019-05-26T14:42:04.049Z,75.80
2019-05-26T14:44:35.509Z,75.80
2019-05-26T14:47:06.623Z,76.30
2019-05-26T14:49:37.685Z,77.10
2019-05-26T14:52:08.992Z,78.20
2019-05-26T14:54:40.585Z,76.90
2019-05-26T14:57:11.757Z,77.90
2019-05-26T14:59:42.823Z,77.80
2019-05-26T15:02:14.374Z,76.30
2019-05-26T15:04:46.180Z,76.60
2019-05-26T15:07:17.964Z,76.30
2019-05-26T15:09:49.740Z,77.50
2019-05-26T15:12:21.791Z,75.50
2019-05-26T15:14:53.079Z,76.00
2019-05-26T15:17:24.540Z,75.50
2019-05-26T15:19:55.846Z,74.70
2019-05-26T15:22:27.191Z,74.90
2019-05-26T15:24:59.738Z,75.00
2019-05-26T15:27:31.459Z,74.90
2019-05-26T15:30:03.923Z,75.40
2019-05-26T15:32:34.946Z,75.40
2019-05-26T15:35:07.255Z,74.70
2019-05-26T15:37:38.174Z,76.30
2019-05-26T15:40:10.109Z,76.50
2019-05-26T15:42:41.721Z,77.00
2019-05-26T15:45:13.750Z,76.00
2019-05-26T15:47:45.586Z,77.00
2019-05-26T15:50:16.792Z,77.70
2019-05-26T15:52:47.942Z,77.60
2019-05-26T15:55:18.751Z,76.40
2019-05-26T15:57:50.344Z,77.90
2019-05-26T16:00:21.447Z,76.80
2019-05-26T16:02:52.871Z,76.30
2019-05-26T16:05:23.839Z,76.20
2019-05-26T16:07:55.057Z,75.90
2019-05-26T16:10:26.121Z,75.40
2019-05-26T16:12:57.486Z,75.40
2019-05-26T16:15:29.007Z,75.40
2019-05-26T16:18:00.654Z,75.70
2019-05-26T16:20:32.151Z,75.60
2019-05-26T16:23:03.341Z,75.60
2019-05-26T16:25:34.494Z,76.40
2019-05-26T16:28:05.420Z,76.10
2019-05-26T16:30:36.938Z,75.80
2019-05-26T16:33:07.437Z,76.20
2019-05-26T16:35:39.447Z,75.80
2019-05-26T16:38:10.706Z,76.70
2019-05-26T16:40:42.359Z,77.30
2019-05-26T16:43:14.747Z,77.90
2019-05-26T16:45:55.568Z,77.40
2019-05-26T16:48:19.031Z,78.30
2019-05-26T16:50:50.499Z,78.60
2019-05-26T16:53:21.263Z,76.80
2019-05-26T16:55:52.114Z,76.90
2019-05-26T16:58:23.707Z,76.00
2019-05-26T17:00:54.584Z,76.10
2019-05-26T17:03:26.043Z,75.10
2019-05-26T17:06:07.609Z,75.30
2019-05-26T17:08:30.425Z,75.60
2019-05-26T17:11:01.768Z,76.50
2019-05-26T17:13:33.087Z,75.20
2019-05-26T17:16:04.888Z,74.90
2019-05-26T17:18:36.507Z,76.50
2019-05-26T17:21:08.198Z,76.40
2019-05-26T17:23:39.343Z,75.20
2019-05-26T17:26:10.622Z,74.70
2019-05-26T17:28:42.452Z,75.10
2019-05-26T17:31:13.238Z,74.80
2019-05-26T17:33:44.400Z,75.30
2019-05-26T17:36:15.567Z,75.60
2019-05-26T17:38:47.148Z,76.00
2019-05-26T17:41:18.673Z,75.90
2019-05-26T17:43:50.487Z,76.10
2019-05-26T17:46:21.223Z,76.40
2019-05-26T17:48:52.105Z,76.90
2019-05-26T17:51:23.070Z,77.50
2019-05-26T17:53:53.987Z,77.30
2019-05-26T17:56:26.798Z,78.40
2019-05-26T17:58:58.455Z,77.00
2019-05-26T18:01:30.065Z,77.70
2019-05-26T18:04:01.637Z,77.20
2019-05-26T18:06:34.736Z,78.40
2019-05-26T18:09:07.475Z,78.80
2019-05-26T18:11:38.749Z,77.30
2019-05-26T18:14:10.451Z,78.10
2019-05-26T18:16:41.835Z,78.70
2019-05-26T18:19:13.407Z,79.60
2019-05-26T18:21:45.263Z,80.70
2019-05-26T18:24:16.219Z,81.50
2019-05-26T18:26:47.106Z,81.00
2019-05-26T18:29:18.296Z,82.20
2019-05-26T18:31:49.490Z,83.00
2019-05-26T18:34:20.993Z,83.10
2019-05-26T18:36:52.894Z,84.40
2019-05-26T18:39:25.095Z,84.30
2019-05-26T18:41:56.538Z,84.50
2019-05-26T18:44:27.786Z,83.70
2019-05-26T18:46:58.719Z,86.00
2019-05-26T18:49:29.892Z,86.30
2019-05-26T18:52:00.974Z,85.80
2019-05-26T18:54:32.119Z,86.60
2019-05-26T18:57:03.880Z,88.20
2019-05-26T18:59:37.192Z,88.50
2019-05-26T19:02:08.227Z,88.90
2019-05-26T19:04:39.485Z,90.20
2019-05-26T19:07:11.125Z,90.40
2019-05-26T19:09:43.082Z,89.10
2019-05-26T19:12:14.651Z,90.40
2019-05-26T19:14:55.036Z,90.80
2019-05-26T19:17:25.607Z,91.50
2019-05-26T19:20:12.859Z,91.00
2019-05-26T19:22:31.214Z,92.30
2019-05-26T19:25:03.251Z,92.20
2019-05-26T19:27:35.285Z,92.60
2019-05-26T19:30:06.995Z,92.70
2019-05-26T19:32:38.381Z,93.30
2019-05-26T19:35:11.175Z,93.00
2019-05-26T19:37:42.961Z,94.00
2019-05-26T19:40:14.476Z,94.30
2019-05-26T19:42:46.020Z,94.60
2019-05-26T19:45:17.478Z,94.80
2019-05-26T19:47:49.231Z,94.40
2019-05-26T19:50:22.189Z,95.70
2019-05-26T19:52:54.094Z,96.50
2019-05-26T19:55:25.412Z,96.00
2019-05-26T19:57:57.407Z,96.20
2019-05-26T20:00:28.545Z,97.30
2019-05-26T20:03:01.019Z,97.50
2019-05-26T20:05:32.158Z,98.00
2019-05-26T20:08:03.622Z,98.80
2019-05-26T20:10:35.923Z,99.60
2019-05-26T20:13:07.205Z,99.90
2019-05-26T20:15:39.635Z,99.90
2019-05-26T20:18:11.279Z,99.90
2019-05-26T20:20:41.792Z,99.90
2019-05-26T20:23:13.015Z,99.90
2019-05-26T20:25:51.035Z,99.90
2019-05-26T20:28:22.077Z,99.90
2019-05-26T20:30:53.499Z,99.90
2019-05-26T20:33:24.492Z,99.90
2019-05-26T20:35:56.167Z,99.90
2019-05-26T20:38:27.935Z,99.90
2019-05-26T20:40:59.638Z,99.90
2019-05-26T20:43:31.886Z,99.90
2019-05-26T20:46:02.726Z,99.90
2019-05-26T20:48:34.250Z,99.90
2019-05-26T20:51:05.648Z,99.90
2019-05-26T20:53:39.960Z,99.90
2019-05-26T20:56:10.143Z,99.90
2019-05-26T20:58:40.718Z,99.90
2019-05-26T21:01:13.623Z,99.90
2019-05-26T21:03:44.550Z,99.90
2019-05-26T21:06:16.014Z,99.90
2019-05-26T21:08:47.222Z,99.90
2019-05-26T21:11:18.167Z,99.90
2019-05-26T21:13:49.027Z,99.90
2019-05-26T21:16:20.527Z,99.90
2019-05-26T21:18:51.598Z,99.90
2019-05-26T21:21:22.867Z,99.90
2019-05-26T21:23:54.207Z,99.90
2019-05-26T21:26:25.231Z,99.90
2019-05-26T21:28:55.822Z,99.90
2019-05-26T21:31:26.591Z,99.90
2019-05-26T21:33:57.903Z,99.90
2019-05-26T21:36:29.004Z,99.90
2019-05-26T21:39:00.206Z,99.90
2019-05-26T21:41:31.112Z,99.90
2019-05-26T21:44:02.625Z,99.90
2019-05-26T21:46:34.347Z,99.90
2019-05-26T21:49:05.186Z,99.90
2019-05-26T21:51:35.654Z,99.90
2019-05-26T21:54:06.423Z,99.90
2019-05-26T21:56:36.984Z,99.90
2019-05-26T21:59:08.737Z,99.90
2019-05-26T22:01:43.750Z,99.90
2019-05-26T22:04:15.102Z,99.90
2019-05-26T22:09:17.505Z,99.90
2019-05-26T22:11:48.951Z,99.90
2019-05-26T22:14:19.894Z,99.90
2019-05-26T22:16:51.083Z,99.90
2019-05-26T22:19:22.906Z,99.90
2019-05-26T22:21:54.078Z,99.90
2019-05-26T22:24:26.006Z,99.90
2019-05-26T22:26:56.781Z,99.90
2019-05-26T22:29:27.825Z,99.90
2019-05-26T22:31:59.403Z,99.90
2019-05-26T22:34:30.926Z,99.90
2019-05-26T22:37:02.498Z,99.90
2019-05-26T22:39:33.856Z,99.90
2019-05-26T22:42:05.079Z,99.90
2019-05-26T22:44:36.212Z,99.90
2019-05-26T22:47:07.054Z,99.90
2019-05-26T22:49:38.955Z,99.90
2019-05-26T22:52:09.539Z,99.90
2019-05-26T22:54:40.627Z,99.90
2019-05-26T22:57:11.987Z,99.90
2019-05-26T22:59:42.811Z,99.90
2019-05-26T23:02:13.709Z,99.90
2019-05-26T23:04:44.499Z,99.90
2019-05-26T23:07:16.051Z,99.90
2019-05-26T23:09:47.278Z,99.90
2019-05-26T23:12:18.919Z,99.90
2019-05-26T23:14:49.891Z,99.90
2019-05-26T23:17:21.408Z,99.90
2019-05-26T23:19:52.281Z,99.90
2019-05-26T23:22:23.522Z,99.90
2019-05-26T23:24:54.940Z,99.90
2019-05-26T23:27:26.234Z,99.90
2019-05-26T23:29:57.138Z,99.90
2019-05-26T23:32:29.793Z,99.90
2019-05-26T23:35:00.638Z,99.90
2019-05-26T23:37:32.074Z,99.90
2019-05-26T23:40:02.991Z,99.90
2019-05-26T23:42:34.254Z,99.90
2019-05-26T23:45:06.078Z,99.90
2019-05-26T23:47:37.469Z,99.90
2019-05-26T23:50:09.616Z,99.90
2019-05-26T23:52:40.995Z,99.90
2019-05-26T23:55:12.232Z,99.90
2019-05-26T23:57:43.586Z,99.90
